Startpagina
METAR-TAF:

METAR-TAF

Vliegvelden :

Caracas, Venezuela

Aeropuerto Internacional de Maiquetía Simón Bolívar

breedte: 10-36N, lengte: 066-59W, hoogte: 43 m

Actueel weer

Dit bericht is 42 minuten geleden gemaakt, om 00:00 UTC
Weinig wind
Temperatuur 29°C
Vochtigheid 62%
Druk 1012 hPa
Zicht 10 km of meer
Verspreide wolken op 1600 ft

METAR: SVMI 260000Z 00000KT 9999 SCT016 29/21 Q1012

Tijdstip: 20:42 (00:42 UTC)

Verwachting

Dit bericht is 2 uur en het 42 minuten geleden gemaakt, om 22:00 UTC
Verwachting geldig van 26 om 00 UTC tot 27 om 00 UTC
Wind 10 kt uit het noordoosten
Zicht 10 km of meer
Weinig wolken op 1600 ft
Wijzigt naar
van 26 om 00 UTC tot 26 om 04 UTC
Wind 5 kt uit het oostnoordoosten
Zicht: 9000 m
Verspreide wolken op 2000 ft
lichte motregen

TAF: SVMI 252200Z 2600/2700 04010KT 9999 FEW016 TX32/20Z TN26/10Z BECMG 2600/2604 07005KT 9000 -DZ SCT020

Waarnemingen en weersverwachtingen van meer dan 4000 vliegvelden (METAR en TAF).

De beschikbare stations zijn de gele en rode punten op de kaart.

Ga met uw muis naar het station om de naam te zien.

Klik dan om waarnemingen en weersverwachtingen te zien.

kaart wijzigen: klik op de groene knoppen met een zwart kruis om in te zoomen, op de groene knop met een streepje om uit te zoomen of op de groene pijlen voor aangrenzende kaarten.


METAR-TAF: